Avalon, Texas
Current Conditions -  °F | °C
As of 5:55 AM on Friday 19 Dec 2014 (Local Time) from KJWY Reporting Station
Haze Haze  
Wind Chill: 40°   Ceiling: 400
Heat Index: 45°   Visibility: 5mi
Dew Point: 45°   Wind: 8mph
Humidity: 100%   Direction: 20°NNE
Pressure: 30.15"   Gusts: NA
Location:  32.21°N, 96.79°W
Report Text: KJWY 191155Z AUTO 02007KT 5SM BR BKN004 OVC110 07/07 A3015 RMK AO2 70001 T00710071 10077 20071
Loading
Personal Weather Stations






























Interactive Weather Map New forecast layout! Learn more

10-Day Weather Forecast

Advertisements
Track Severe Weather on mobile